Time;durP1;ratioP1;P1;durP2;ratioP2;P2;SDS_P1;SDS_P2;PMS_P1;PMS_P2;Temp;Humidity;BMP_temperature;BMP_pressure;BME280_temperature;BME280_humidity;BME280_pressure;Samples;Min_cycle;Max_cycle;Signal;HPM_P1;HPM_P2
2023/06/05 00:00:06;;;;;;;;;;;16.50;99.90;;;;;;4971922;28;20609;-75
2023/06/05 00:02:32;;;;;;;;;;;16.50;99.90;;;;;;4966470;28;20052;-75
2023/06/05 00:04:58;;;;;;;;;;;16.50;99.90;;;;;;4960682;28;20004;-76
2023/06/05 00:07:26;;;;;;;;;;;16.50;99.90;;;;;;4964640;28;19935;-76
2023/06/05 00:09:52;;;;;;;;;;;16.50;99.90;;;;;;4972557;28;19911;-78
2023/06/05 00:12:21;;;;;;;;;;;16.50;99.90;;;;;;4969515;28;19917;-75
2023/06/05 00:14:48;;;;;;;;;;;16.50;99.90;;;;;;4957994;28;19922;-75
2023/06/05 00:17:16;;;;;;;;;;;16.60;99.90;;;;;;4973475;28;20034;-75
2023/06/05 00:19:49;;;;;;;;;;;16.50;99.90;;;;;;4966503;28;19988;-76
2023/06/05 00:22:14;;;;;;;;;;;16.40;99.90;;;;;;4972126;28;19922;-76
2023/06/05 00:24:41;;;;;;;;;;;16.40;99.90;;;;;;4969839;28;19914;-75
2023/06/05 00:27:12;;;;;;;;;;;16.40;99.90;;;;;;4968137;28;19914;-76
2023/06/05 00:29:39;;;;;;;;;;;16.40;99.90;;;;;;4967238;28;19914;-76
2023/06/05 00:32:05;;;;;;;;;;;16.40;99.90;;;;;;4962877;28;19914;-75
2023/06/05 00:34:31;;;;;;;;;;;16.30;99.90;;;;;;4961861;28;19918;-75
2023/06/05 00:37:03;;;;;;;;;;;16.20;99.90;;;;;;4963186;28;19914;-75
2023/06/05 00:39:31;;;;;;;;;;;16.20;99.90;;;;;;4958948;28;20404;-75
2023/06/05 00:42:03;;;;;;;;;;;16.20;99.90;;;;;;4964539;28;20017;-75
2023/06/05 00:44:30;;;;;;;;;;;16.20;99.90;;;;;;4962452;28;20280;-75
2023/06/05 00:46:55;;;;;;;;;;;16.10;99.90;;;;;;4965577;28;19910;-75
2023/06/05 00:49:21;;;;;;;;;;;16.10;99.90;;;;;;4962835;28;20366;-75
2023/06/05 00:51:47;;;;;;;;;;;16.10;99.90;;;;;;4966396;28;19921;-76
2023/06/05 00:54:15;;;;;;;;;;;16.10;99.90;;;;;;4968080;28;19925;-75
2023/06/05 00:56:47;;;;;;;;;;;16.00;99.90;;;;;;4973043;28;19968;-75
2023/06/05 00:59:13;;;;;;;;;;;16.00;99.90;;;;;;4969768;28;20119;-75
2023/06/05 01:01:40;;;;;;;;;;;16.10;99.90;;;;;;4973970;28;19910;-75
2023/06/05 01:04:06;;;;;;;;;;;16.10;99.90;;;;;;4971159;28;19914;-75
2023/06/05 01:06:33;;;;;;;;;;;16.20;99.90;;;;;;4970031;28;20284;-75
2023/06/05 01:08:59;;;;;;;;;;;16.20;99.90;;;;;;4976453;28;19910;-75
2023/06/05 01:11:39;;;;;;;;;;;16.20;99.90;;;;;;4975008;28;19909;-75
2023/06/05 01:14:12;;;;;;;;;;;16.20;99.90;;;;;;4973216;28;19920;-75
2023/06/05 01:16:38;;;;;;;;;;;16.20;99.90;;;;;;4971506;28;19910;-76
2023/06/05 01:19:04;;;;;;;;;;;16.30;99.90;;;;;;4973646;28;20647;-75
2023/06/05 01:21:31;;;;;;;;;;;16.20;99.90;;;;;;4977992;28;19961;-75
2023/06/05 01:23:57;;;;;;;;;;;16.10;99.90;;;;;;4979524;28;20439;-78
2023/06/05 01:26:25;;;;;;;;;;;16.20;99.90;;;;;;4979202;28;19957;-75
2023/06/05 01:28:51;;;;;;;;;;;16.10;99.90;;;;;;4974772;28;19914;-75
2023/06/05 01:31:19;;;;;;;;;;;16.20;99.90;;;;;;4975465;28;19914;-76
2023/06/05 01:33:57;;;;;;;;;;;16.20;99.90;;;;;;4975389;28;19961;-75
2023/06/05 01:36:23;;;;;;;;;;;16.20;99.90;;;;;;4971826;28;19921;-75
2023/06/05 01:38:50;;;;;;;;;;;16.20;99.90;;;;;;4978140;28;20004;-75
2023/06/05 01:41:15;;;;;;;;;;;16.00;99.90;;;;;;4976229;28;19996;-76
2023/06/05 01:43:42;;;;;;;;;;;15.90;99.90;;;;;;4977727;28;20017;-75
2023/06/05 01:46:08;;;;;;;;;;;16.00;99.90;;;;;;4976984;28;19965;-75
2023/06/05 01:48:34;;;;;;;;;;;16.10;99.90;;;;;;4974632;28;19915;-75
2023/06/05 01:51:00;;;;;;;;;;;16.10;99.90;;;;;;4976386;28;20371;-75
2023/06/05 01:53:27;;;;;;;;;;;16.00;99.90;;;;;;4975567;28;19909;-75
2023/06/05 01:55:53;;;;;;;;;;;16.00;99.90;;;;;;4976387;28;19993;-75
2023/06/05 01:58:21;;;;;;;;;;;16.00;99.90;;;;;;4976363;28;20009;-75
2023/06/05 02:00:46;;;;;;;;;;;16.10;99.90;;;;;;4977011;28;20348;-75
2023/06/05 02:03:15;;;;;;;;;;;16.10;99.90;;;;;;4977362;28;19945;-75
2023/06/05 02:05:41;;;;;;;;;;;16.10;99.90;;;;;;4972951;28;20387;-75
2023/06/05 02:08:09;;;;;;;;;;;16.10;99.90;;;;;;4977204;28;19941;-75
2023/06/05 02:10:35;;;;;;;;;;;16.00;99.90;;;;;;4975469;28;19910;-75
2023/06/05 02:13:00;;;;;;;;;;;16.00;99.90;;;;;;4977435;28;20630;-75
2023/06/05 02:15:26;;;;;;;;;;;16.00;99.90;;;;;;4972676;28;20000;-75
2023/06/05 02:17:53;;;;;;;;;;;16.20;99.90;;;;;;4975020;28;19946;-75
2023/06/05 02:20:19;;;;;;;;;;;16.20;99.90;;;;;;4974134;28;19918;-76
2023/06/05 02:22:45;;;;;;;;;;;16.20;99.90;;;;;;4975800;28;19910;-76
2023/06/05 02:25:10;;;;;;;;;;;16.20;99.90;;;;;;4974865;28;19914;-76
2023/06/05 02:27:36;;;;;;;;;;;16.10;99.90;;;;;;4953960;28;20292;-75
2023/06/05 02:30:02;;;;;;;;;;;16.20;99.90;;;;;;4975765;28;19924;-76
2023/06/05 02:32:28;;;;;;;;;;;16.20;99.90;;;;;;4974790;28;19910;-75
2023/06/05 02:34:56;;;;;;;;;;;16.20;99.90;;;;;;4969498;28;19917;-75
2023/06/05 02:37:26;;;;;;;;;;;16.20;99.90;;;;;;4974232;28;19910;-75
2023/06/05 02:39:51;;;;;;;;;;;16.20;99.90;;;;;;4975007;28;19918;-75
2023/06/05 02:42:18;;;;;;;;;;;16.20;99.90;;;;;;4974528;28;19915;-75
2023/06/05 02:44:44;;;;;;;;;;;16.20;99.90;;;;;;4975878;28;19922;-75
2023/06/05 02:47:10;;;;;;;;;;;16.20;99.90;;;;;;4973496;28;20209;-75
2023/06/05 02:49:36;;;;;;;;;;;16.10;99.90;;;;;;4973935;28;19914;-75
2023/06/05 02:52:02;;;;;;;;;;;16.10;99.90;;;;;;4975447;28;20727;-77
2023/06/05 02:54:28;;;;;;;;;;;16.10;99.90;;;;;;4972252;28;19985;-75
2023/06/05 02:56:54;;;;;;;;;;;16.00;99.90;;;;;;4972482;28;20013;-75
2023/06/05 02:59:22;;;;;;;;;;;15.90;99.90;;;;;;4973291;28;19921;-76
2023/06/05 03:01:49;;;;;;;;;;;15.80;99.90;;;;;;4973782;28;19989;-75
2023/06/05 03:04:20;;;;;;;;;;;15.60;99.90;;;;;;4973855;28;19929;-75
2023/06/05 03:06:50;;;;;;;;;;;15.60;99.90;;;;;;4970435;28;19918;-75
2023/06/05 03:09:16;;;;;;;;;;;15.60;99.90;;;;;;4969060;28;19917;-76
2023/06/05 03:11:41;;;;;;;;;;;15.70;99.90;;;;;;4976457;28;19999;-76
2023/06/05 03:14:07;;;;;;;;;;;15.70;99.90;;;;;;4971515;28;20397;-75
2023/06/05 03:16:37;;;;;;;;;;;15.70;99.90;;;;;;4973241;28;19925;-75
2023/06/05 03:19:03;;;;;;;;;;;15.80;99.90;;;;;;4975258;28;19918;-75
2023/06/05 03:21:28;;;;;;;;;;;15.80;99.90;;;;;;4975577;28;19916;-75
2023/06/05 03:23:54;;;;;;;;;;;15.80;99.90;;;;;;4969590;28;20287;-75
2023/06/05 03:26:22;;;;;;;;;;;15.90;99.90;;;;;;4974174;28;20045;-75
2023/06/05 03:28:47;;;;;;;;;;;15.90;99.90;;;;;;4968027;28;19915;-75
2023/06/05 03:31:13;;;;;;;;;;;15.90;99.90;;;;;;4976027;28;19925;-76
2023/06/05 03:33:38;;;;;;;;;;;15.90;99.90;;;;;;4973754;28;19914;-76
2023/06/05 03:36:05;;;;;;;;;;;15.90;99.90;;;;;;4968078;28;20382;-76
2023/06/05 03:38:34;;;;;;;;;;;15.90;99.90;;;;;;4972080;28;21352;-75
2023/06/05 03:41:00;;;;;;;;;;;15.90;99.90;;;;;;4975214;28;19960;-75
2023/06/05 03:43:25;;;;;;;;;;;16.00;99.90;;;;;;4973432;28;20384;-75
2023/06/05 03:45:51;;;;;;;;;;;15.90;99.90;;;;;;4977040;28;19909;-75
2023/06/05 03:48:19;;;;;;;;;;;15.90;99.90;;;;;;4972042;28;19921;-75
2023/06/05 03:50:46;;;;;;;;;;;15.90;99.90;;;;;;4976781;28;20347;-75
2023/06/05 03:53:13;;;;;;;;;;;16.00;99.90;;;;;;4967306;28;19920;-75
2023/06/05 03:55:44;;;;;;;;;;;16.00;99.90;;;;;;4974048;28;19979;-75
2023/06/05 03:58:14;;;;;;;;;;;16.00;99.90;;;;;;4972680;28;19917;-75
2023/06/05 04:00:41;;;;;;;;;;;16.00;99.90;;;;;;4974142;28;19910;-75
2023/06/05 04:03:08;;;;;;;;;;;16.00;99.90;;;;;;4971646;28;19925;-75
2023/06/05 04:05:34;;;;;;;;;;;15.90;99.90;;;;;;4965686;28;20466;-75
2023/06/05 04:07:59;;;;;;;;;;;16.00;99.90;;;;;;4971074;28;19910;-75
2023/06/05 04:10:25;;;;;;;;;;;15.90;99.90;;;;;;4973301;28;19917;-75
2023/06/05 04:12:51;;;;;;;;;;;15.90;99.90;;;;;;4975011;28;19914;-75
2023/06/05 04:15:16;;;;;;;;;;;15.80;99.90;;;;;;4974051;28;19930;-75
2023/06/05 04:17:42;;;;;;;;;;;15.80;99.90;;;;;;4972436;28;19929;-75
2023/06/05 04:20:13;;;;;;;;;;;15.80;99.90;;;;;;4971318;28;19910;-76
2023/06/05 04:22:39;;;;;;;;;;;15.90;99.90;;;;;;4973865;28;19973;-76
2023/06/05 04:25:04;;;;;;;;;;;15.90;99.90;;;;;;4974671;28;19914;-76
2023/06/05 04:27:30;;;;;;;;;;;15.90;99.90;;;;;;4979961;28;19918;-75
2023/06/05 04:29:56;;;;;;;;;;;15.90;99.90;;;;;;4977046;28;19911;-76
2023/06/05 04:32:22;;;;;;;;;;;15.90;99.90;;;;;;4972150;28;20343;-75
2023/06/05 04:34:47;;;;;;;;;;;15.90;99.90;;;;;;4970830;28;19918;-76
2023/06/05 04:37:13;;;;;;;;;;;15.90;99.90;;;;;;4978267;28;19925;-75
2023/06/05 04:39:38;;;;;;;;;;;15.90;99.90;;;;;;4977356;28;19915;-77
2023/06/05 04:42:04;;;;;;;;;;;15.90;99.90;;;;;;4975301;28;19949;-76
2023/06/05 04:44:30;;;;;;;;;;;16.00;99.90;;;;;;4977919;28;20596;-75
2023/06/05 04:46:56;;;;;;;;;;;16.00;99.90;;;;;;4972200;28;20520;-76
2023/06/05 04:49:25;;;;;;;;;;;16.00;99.90;;;;;;4970940;28;19946;-75
2023/06/05 04:51:53;;;;;;;;;;;16.00;99.90;;;;;;4975746;28;19918;-76
2023/06/05 04:54:19;;;;;;;;;;;16.10;99.90;;;;;;4974657;28;20041;-76
2023/06/05 04:56:45;;;;;;;;;;;16.30;99.90;;;;;;4971932;28;20334;-76
2023/06/05 04:59:11;;;;;;;;;;;16.40;99.90;;;;;;4974004;28;19914;-76
2023/06/05 05:01:36;;;;;;;;;;;16.60;99.90;;;;;;4968708;28;19914;-76
2023/06/05 05:04:02;;;;;;;;;;;16.70;99.90;;;;;;4972230;28;19961;-76
2023/06/05 05:06:28;;;;;;;;;;;16.90;99.90;;;;;;4968790;28;19987;-76
2023/06/05 05:08:53;;;;;;;;;;;17.00;99.90;;;;;;4974587;28;19939;-76
2023/06/05 05:11:19;;;;;;;;;;;16.90;99.90;;;;;;4969581;28;19917;-76
2023/06/05 05:13:44;;;;;;;;;;;16.80;99.90;;;;;;4972166;28;19941;-75
2023/06/05 05:16:13;;;;;;;;;;;16.80;99.90;;;;;;4970675;28;20394;-76
2023/06/05 05:18:40;;;;;;;;;;;16.90;99.90;;;;;;4972730;28;19914;-76
2023/06/05 05:21:06;;;;;;;;;;;17.10;99.90;;;;;;4970249;28;20575;-75
2023/06/05 05:23:31;;;;;;;;;;;17.20;99.90;;;;;;4975895;28;19974;-76
2023/06/05 05:25:57;;;;;;;;;;;17.20;99.90;;;;;;4970356;28;20025;-75
2023/06/05 05:28:23;;;;;;;;;;;17.40;99.90;;;;;;4971252;28;20363;-75
2023/06/05 05:30:48;;;;;;;;;;;17.50;99.90;;;;;;4975030;28;20543;-75
2023/06/05 05:33:14;;;;;;;;;;;17.70;99.90;;;;;;4975879;28;19917;-75
2023/06/05 05:35:40;;;;;;;;;;;17.80;99.90;;;;;;4971667;28;19965;-75
2023/06/05 05:38:06;;;;;;;;;;;17.60;99.90;;;;;;4975541;28;20324;-75
2023/06/05 05:40:31;;;;;;;;;;;17.90;99.90;;;;;;4975322;28;19940;-75
2023/06/05 05:42:57;;;;;;;;;;;17.80;99.90;;;;;;4975159;28;19914;-75
2023/06/05 05:45:22;;;;;;;;;;;17.90;99.90;;;;;;4974648;28;20528;-75
2023/06/05 05:47:48;;;;;;;;;;;18.00;99.90;;;;;;4975554;28;19910;-75
2023/06/05 05:50:13;;;;;;;;;;;18.30;99.90;;;;;;4975228;28;19918;-75
2023/06/05 05:52:39;;;;;;;;;;;18.40;99.90;;;;;;4976077;28;20384;-75
2023/06/05 05:55:05;;;;;;;;;;;18.30;99.90;;;;;;4972647;28;19945;-75
2023/06/05 05:57:30;;;;;;;;;;;18.30;99.90;;;;;;4970103;28;19918;-75
2023/06/05 05:59:55;;;;;;;;;;;18.10;99.90;;;;;;4971479;28;19914;-75
2023/06/05 06:02:21;;;;;;;;;;;18.10;99.90;;;;;;4971146;28;20368;-75
2023/06/05 06:04:48;;;;;;;;;;;18.20;99.90;;;;;;4974708;28;19922;-74
2023/06/05 06:07:13;;;;;;;;;;;18.10;99.90;;;;;;4975252;28;20686;-76
2023/06/05 06:09:40;;;;;;;;;;;18.00;99.90;;;;;;4970528;28;19910;-75
2023/06/05 06:12:07;;;;;;;;;;;17.60;99.90;;;;;;4969468;28;19921;-76
2023/06/05 06:14:35;;;;;;;;;;;17.40;99.90;;;;;;4975031;28;19934;-75
2023/06/05 06:17:02;;;;;;;;;;;17.30;99.90;;;;;;4970051;28;19925;-75
2023/06/05 06:19:28;;;;;;;;;;;17.20;99.90;;;;;;4974648;28;19921;-75
2023/06/05 06:21:54;;;;;;;;;;;17.20;99.90;;;;;;4970097;28;20291;-75
2023/06/05 06:24:21;;;;;;;;;;;17.30;99.90;;;;;;4974628;28;19969;-75
2023/06/05 06:26:47;;;;;;;;;;;17.20;99.90;;;;;;4970494;28;20583;-75
2023/06/05 06:29:19;;;;;;;;;;;17.20;99.90;;;;;;4973329;28;19921;-76
2023/06/05 06:31:45;;;;;;;;;;;17.20;99.90;;;;;;4973584;28;19918;-75
2023/06/05 06:34:10;;;;;;;;;;;17.10;99.90;;;;;;4972872;28;19910;-75
2023/06/05 06:36:40;;;;;;;;;;;17.10;99.90;;;;;;4971903;28;19957;-75
2023/06/05 06:39:07;;;;;;;;;;;17.00;99.90;;;;;;4974429;28;19917;-75
2023/06/05 06:41:33;;;;;;;;;;;16.90;99.90;;;;;;4969604;28;19972;-75
2023/06/05 06:43:59;;;;;;;;;;;17.10;99.90;;;;;;4970965;28;19957;-75
2023/06/05 06:46:24;;;;;;;;;;;17.20;99.90;;;;;;4971664;28;20347;-75
2023/06/05 06:48:50;;;;;;;;;;;17.20;99.90;;;;;;4967330;28;19917;-75
2023/06/05 06:51:15;;;;;;;;;;;17.20;99.90;;;;;;4975903;28;20004;-75
2023/06/05 06:53:41;;;;;;;;;;;17.20;99.90;;;;;;4968904;28;20287;-75
2023/06/05 06:56:07;;;;;;;;;;;17.30;99.90;;;;;;4972976;28;19960;-76
2023/06/05 06:58:33;;;;;;;;;;;17.40;99.90;;;;;;4967929;28;20025;-75
2023/06/05 07:00:59;;;;;;;;;;;17.40;99.90;;;;;;4968036;28;19993;-75
2023/06/05 07:03:25;;;;;;;;;;;17.50;99.90;;;;;;4970443;28;19910;-76
2023/06/05 07:05:51;;;;;;;;;;;17.60;99.90;;;;;;4966634;28;19937;-75
2023/06/05 07:08:16;;;;;;;;;;;17.80;99.90;;;;;;4972516;28;19914;-75
2023/06/05 07:10:42;;;;;;;;;;;17.90;99.90;;;;;;4971524;28;20056;-75
2023/06/05 07:13:07;;;;;;;;;;;18.10;99.90;;;;;;4974257;28;19957;-75
2023/06/05 07:15:33;;;;;;;;;;;18.20;99.90;;;;;;4966629;28;20021;-75
2023/06/05 07:17:58;;;;;;;;;;;18.40;99.90;;;;;;4967628;28;19910;-74
2023/06/05 07:20:24;;;;;;;;;;;18.60;99.90;;;;;;4967724;28;20382;-75
2023/06/05 07:22:49;;;;;;;;;;;19.00;99.90;;;;;;4968130;28;19921;-75
2023/06/05 07:25:16;;;;;;;;;;;19.20;99.90;;;;;;4973688;28;20006;-75
2023/06/05 07:27:43;;;;;;;;;;;19.50;99.90;;;;;;4972348;28;19950;-75
2023/06/05 07:30:10;;;;;;;;;;;19.80;99.90;;;;;;4972342;28;19910;-76
2023/06/05 07:32:35;;;;;;;;;;;20.00;99.90;;;;;;4974827;28;20291;-76
2023/06/05 07:35:02;;;;;;;;;;;20.00;99.90;;;;;;4968769;28;19926;-75
2023/06/05 07:37:27;;;;;;;;;;;19.40;99.90;;;;;;4973075;28;19914;-75
2023/06/05 07:39:53;;;;;;;;;;;19.00;99.90;;;;;;4976477;28;19914;-75
2023/06/05 07:42:19;;;;;;;;;;;18.80;99.90;;;;;;4972059;28;19921;-76
2023/06/05 07:44:45;;;;;;;;;;;18.80;99.90;;;;;;4969966;28;19914;-75
2023/06/05 07:47:10;;;;;;;;;;;18.90;99.90;;;;;;4976060;28;19918;-78
2023/06/05 07:49:36;;;;;;;;;;;19.00;99.90;;;;;;4976219;28;19998;-76
2023/06/05 07:52:01;;;;;;;;;;;19.10;99.90;;;;;;4974259;28;19918;-75
2023/06/05 07:54:27;;;;;;;;;;;19.30;99.90;;;;;;4969485;28;20013;-74
2023/06/05 07:56:53;;;;;;;;;;;19.50;99.90;;;;;;4973486;28;19910;-75
2023/06/05 07:59:24;;;;;;;;;;;19.80;99.90;;;;;;4973293;28;19997;-75
2023/06/05 08:01:50;;;;;;;;;;;19.90;99.90;;;;;;4972951;28;19963;-75
2023/06/05 08:04:17;;;;;;;;;;;19.70;99.90;;;;;;4973516;28;20348;-75
2023/06/05 08:06:43;;;;;;;;;;;20.00;99.90;;;;;;4970697;28;19911;-75
2023/06/05 08:09:12;;;;;;;;;;;20.20;99.90;;;;;;4971038;28;20395;-75
2023/06/05 08:11:37;;;;;;;;;;;20.20;99.90;;;;;;4971591;28;20453;-75
2023/06/05 08:14:05;;;;;;;;;;;19.90;99.90;;;;;;4974658;28;19914;-75
2023/06/05 08:16:31;;;;;;;;;;;19.40;99.90;;;;;;4974236;28;19929;-75
2023/06/05 08:18:57;;;;;;;;;;;19.10;99.90;;;;;;4975564;28;20338;-75
2023/06/05 08:21:22;;;;;;;;;;;19.20;99.90;;;;;;4974659;28;19910;-75
2023/06/05 08:23:48;;;;;;;;;;;19.10;99.90;;;;;;4973436;28;20012;-75
2023/06/05 08:26:13;;;;;;;;;;;19.10;99.90;;;;;;4970850;28;19924;-75
2023/06/05 08:28:40;;;;;;;;;;;19.40;99.90;;;;;;4971257;28;19918;-75
2023/06/05 08:31:05;;;;;;;;;;;19.50;99.90;;;;;;4970344;28;19910;-75
2023/06/05 08:33:34;;;;;;;;;;;19.40;99.90;;;;;;4971470;28;21149;-75
2023/06/05 08:36:01;;;;;;;;;;;19.30;99.90;;;;;;4970640;28;21010;-75
2023/06/05 08:38:26;;;;;;;;;;;19.40;99.90;;;;;;4975463;28;19910;-75
2023/06/05 08:41:18;;;;;;;;;;;19.70;99.90;;;;;;4978772;28;19913;-74
2023/06/05 08:43:44;;;;;;;;;;;20.30;99.90;;;;;;4971524;28;19977;-74
2023/06/05 08:46:11;;;;;;;;;;;20.30;99.90;;;;;;4969964;28;19911;-75
2023/06/05 08:48:46;;;;;;;;;;;20.60;99.90;;;;;;4975135;28;19915;-75
2023/06/05 08:51:16;;;;;;;;;;;20.60;99.90;;;;;;4976802;28;19914;-75
2023/06/05 08:53:44;;;;;;;;;;;20.70;99.90;;;;;;4972069;28;20028;-74
2023/06/05 08:56:10;;;;;;;;;;;20.40;99.90;;;;;;4968820;28;19910;-74
2023/06/05 08:58:36;;;;;;;;;;;20.40;99.90;;;;;;4973025;28;19914;-74
2023/06/05 09:01:02;;;;;;;;;;;20.70;99.90;;;;;;4976518;28;20064;-75
2023/06/05 09:03:28;;;;;;;;;;;20.90;99.90;;;;;;4974435;28;19913;-74
2023/06/05 09:05:53;;;;;;;;;;;20.90;99.90;;;;;;4974958;28;19921;-74
2023/06/05 09:08:27;;;;;;;;;;;21.20;99.90;;;;;;4971783;28;19968;-75
2023/06/05 09:10:52;;;;;;;;;;;21.80;99.90;;;;;;4973974;28;19957;-75
2023/06/05 09:13:18;;;;;;;;;;;22.00;99.90;;;;;;4975900;28;19910;-75
2023/06/05 09:15:49;;;;;;;;;;;21.80;99.90;;;;;;4973552;28;19926;-75
2023/06/05 09:18:15;;;;;;;;;;;21.60;99.90;;;;;;4975072;28;20009;-75
2023/06/05 09:20:47;;;;;;;;;;;21.30;99.90;;;;;;4971251;28;20351;-75
2023/06/05 09:23:24;;;;;;;;;;;21.20;99.90;;;;;;4971928;28;21293;-75
2023/06/05 09:25:50;;;;;;;;;;;21.10;99.90;;;;;;4969359;28;20676;-75
2023/06/05 09:28:16;;;;;;;;;;;21.50;99.90;;;;;;4971725;28;19914;-75
2023/06/05 09:30:57;;;;;;;;;;;23.40;99.90;;;;;;4974197;28;19910;-76
2023/06/05 09:33:23;;;;;;;;;;;24.10;99.90;;;;;;4974252;28;19953;-75
2023/06/05 09:36:01;;;;;;;;;;;24.30;99.90;;;;;;4970575;28;19918;-75
2023/06/05 09:38:27;;;;;;;;;;;24.30;99.90;;;;;;4974578;28;19945;-75
2023/06/05 09:40:53;;;;;;;;;;;24.90;99.90;;;;;;4975993;28;20328;-76
2023/06/05 09:43:22;;;;;;;;;;;25.50;98.60;;;;;;4973553;28;19917;-76
2023/06/05 09:45:48;;;;;;;;;;;25.50;98.00;;;;;;4969878;28;20387;-76
2023/06/05 09:48:14;;;;;;;;;;;24.10;98.90;;;;;;4968068;28;19914;-76
2023/06/05 09:50:40;;;;;;;;;;;23.70;99.90;;;;;;4973773;28;19910;-75
2023/06/05 09:53:07;;;;;;;;;;;23.50;99.90;;;;;;4974496;28;19910;-75
2023/06/05 09:55:32;;;;;;;;;;;23.10;99.90;;;;;;4970853;28;20636;-75
2023/06/05 09:57:59;;;;;;;;;;;22.50;99.90;;;;;;4975163;28;19961;-75
2023/06/05 10:00:25;;;;;;;;;;;22.10;99.90;;;;;;4975979;28;19910;-76
2023/06/05 10:02:53;;;;;;;;;;;21.60;99.90;;;;;;4975864;28;19910;-76
2023/06/05 10:05:19;;;;;;;;;;;21.50;99.90;;;;;;4968130;28;20379;-75
2023/06/05 10:07:45;;;;;;;;;;;21.70;99.90;;;;;;4976576;28;19925;-75
2023/06/05 10:10:10;;;;;;;;;;;22.40;99.90;;;;;;4974890;28;20227;-76
2023/06/05 10:12:36;;;;;;;;;;;23.50;99.90;;;;;;4974806;28;19918;-75
2023/06/05 10:15:01;;;;;;;;;;;22.50;99.90;;;;;;4972949;28;19926;-75
2023/06/05 10:17:27;;;;;;;;;;;21.60;99.90;;;;;;4968912;28;20013;-75
2023/06/05 10:19:53;;;;;;;;;;;21.20;99.90;;;;;;4970337;28;19910;-75
2023/06/05 10:22:19;;;;;;;;;;;21.00;99.90;;;;;;4976488;28;19918;-75
2023/06/05 10:24:46;;;;;;;;;;;20.90;99.90;;;;;;4970484;28;20370;-75
2023/06/05 10:27:15;;;;;;;;;;;21.00;99.90;;;;;;4972687;28;19917;-74
2023/06/05 10:29:43;;;;;;;;;;;20.70;99.90;;;;;;4973869;28;20351;-75
2023/06/05 10:32:24;;;;;;;;;;;20.80;99.90;;;;;;4970765;28;20332;-75
2023/06/05 10:34:56;;;;;;;;;;;21.00;99.90;;;;;;4955458;28;19957;-75
2023/06/05 10:37:30;;;;;;;;;;;21.20;99.90;;;;;;4970804;28;19909;-75
2023/06/05 10:39:56;;;;;;;;;;;21.50;99.90;;;;;;4975023;28;19956;-75
2023/06/05 10:42:24;;;;;;;;;;;21.60;99.90;;;;;;4968372;28;19950;-75
2023/06/05 10:44:50;;;;;;;;;;;21.80;99.90;;;;;;4973543;28;19914;-75
2023/06/05 10:47:34;;;;;;;;;;;21.50;99.90;;;;;;4969221;28;20260;-74
2023/06/05 10:50:18;;;;;;;;;;;21.50;99.90;;;;;;4973553;28;20334;-74
2023/06/05 10:52:44;;;;;;;;;;;21.30;99.90;;;;;;4970325;28;19919;-74
2023/06/05 10:55:11;;;;;;;;;;;21.40;99.90;;;;;;4967336;28;19925;-75
2023/06/05 10:57:55;;;;;;;;;;;21.30;99.90;;;;;;4968511;28;19914;-75
2023/06/05 11:00:21;;;;;;;;;;;21.40;99.90;;;;;;4968256;28;20364;-75
2023/06/05 11:02:47;;;;;;;;;;;21.50;99.90;;;;;;4969060;28;19921;-74
2023/06/05 11:05:12;;;;;;;;;;;21.60;99.90;;;;;;4972797;28;19914;-75
2023/06/05 11:07:38;;;;;;;;;;;21.90;99.90;;;;;;4976330;28;20587;-75
2023/06/05 11:10:04;;;;;;;;;;;22.10;99.90;;;;;;4969301;28;20005;-74
2023/06/05 11:12:42;;;;;;;;;;;22.10;99.90;;;;;;4969174;28;20021;-76
2023/06/05 11:15:23;;;;;;;;;;;21.90;99.90;;;;;;4971319;28;20016;-76
2023/06/05 11:17:48;;;;;;;;;;;21.80;99.90;;;;;;4975700;28;19972;-75
2023/06/05 11:20:23;;;;;;;;;;;21.70;99.90;;;;;;4975098;28;20778;-75
2023/06/05 11:22:55;;;;;;;;;;;21.80;99.90;;;;;;4975693;28;19910;-75
2023/06/05 11:25:21;;;;;;;;;;;21.90;99.90;;;;;;4971882;28;19973;-75
2023/06/05 11:27:47;;;;;;;;;;;21.80;99.90;;;;;;4973679;28;19918;-76
2023/06/05 11:30:13;;;;;;;;;;;21.60;99.90;;;;;;4972105;28;19922;-76
2023/06/05 11:32:39;;;;;;;;;;;21.60;99.90;;;;;;4971835;28;19956;-76
2023/06/05 11:35:05;;;;;;;;;;;21.80;99.90;;;;;;4967609;28;19910;-76
2023/06/05 11:37:32;;;;;;;;;;;22.00;99.90;;;;;;4970138;28;19918;-76
2023/06/05 11:39:58;;;;;;;;;;;22.10;99.90;;;;;;4966867;28;19910;-75
2023/06/05 11:42:24;;;;;;;;;;;22.20;99.90;;;;;;4968448;28;19925;-75
2023/06/05 11:44:49;;;;;;;;;;;22.20;99.90;;;;;;4965880;28;19954;-75
2023/06/05 11:47:24;;;;;;;;;;;21.90;99.90;;;;;;4973668;28;19925;-75
2023/06/05 11:49:50;;;;;;;;;;;22.00;99.90;;;;;;4968366;28;19914;-76
2023/06/05 11:52:20;;;;;;;;;;;22.10;99.90;;;;;;4969682;28;19961;-76
2023/06/05 11:54:53;;;;;;;;;;;22.20;99.90;;;;;;4966371;28;20521;-77
2023/06/05 11:57:26;;;;;;;;;;;22.30;99.90;;;;;;4970471;28;19934;-76
2023/06/05 11:59:52;;;;;;;;;;;22.20;99.90;;;;;;4969034;28;19914;-75
2023/06/05 12:02:21;;;;;;;;;;;22.20;99.90;;;;;;4971685;28;19925;-75
2023/06/05 12:04:47;;;;;;;;;;;22.10;99.90;;;;;;4966273;28;19922;-75
2023/06/05 12:07:12;;;;;;;;;;;22.00;99.90;;;;;;4968474;28;20041;-75
2023/06/05 12:09:38;;;;;;;;;;;21.60;99.90;;;;;;4967226;28;19941;-75
2023/06/05 12:12:07;;;;;;;;;;;21.70;99.90;;;;;;4972056;28;20422;-75
2023/06/05 12:14:33;;;;;;;;;;;21.60;99.90;;;;;;4967323;28;19926;-75
2023/06/05 12:16:58;;;;;;;;;;;21.70;99.90;;;;;;4971600;28;19910;-75
2023/06/05 12:19:24;;;;;;;;;;;22.00;99.90;;;;;;4973007;28;19921;-75
2023/06/05 12:21:50;;;;;;;;;;;22.10;99.90;;;;;;4973898;28;19910;-76
2023/06/05 12:24:23;;;;;;;;;;;22.00;99.90;;;;;;4966511;28;19941;-75
2023/06/05 12:26:51;;;;;;;;;;;21.90;99.90;;;;;;4971835;28;19914;-76
2023/06/05 12:29:17;;;;;;;;;;;22.00;99.90;;;;;;4968589;28;20467;-75
2023/06/05 12:31:43;;;;;;;;;;;22.00;99.90;;;;;;4966662;28;19937;-74
2023/06/05 12:34:08;;;;;;;;;;;22.00;99.90;;;;;;4971291;28;19911;-74
2023/06/05 12:36:43;;;;;;;;;;;22.10;99.90;;;;;;4971955;28;20012;-73
2023/06/05 12:39:12;;;;;;;;;;;21.80;99.90;;;;;;4973782;28;19997;-74
2023/06/05 12:41:39;;;;;;;;;;;21.70;99.90;;;;;;4972505;28;19950;-75
2023/06/05 12:44:05;;;;;;;;;;;21.80;99.90;;;;;;4974946;28;19922;-74
2023/06/05 12:46:31;;;;;;;;;;;21.90;99.90;;;;;;4977364;28;21380;-79
2023/06/05 12:48:58;;;;;;;;;;;22.00;99.90;;;;;;4975341;28;20367;-79
2023/06/05 12:51:25;;;;;;;;;;;22.00;99.90;;;;;;4972958;28;20364;-80
2023/06/05 12:53:51;;;;;;;;;;;21.80;99.90;;;;;;4976898;28;19910;-79
2023/06/05 12:56:17;;;;;;;;;;;21.90;99.90;;;;;;4972056;28;19965;-79
2023/06/05 12:58:42;;;;;;;;;;;21.80;99.90;;;;;;4972011;28;19914;-79
2023/06/05 13:01:08;;;;;;;;;;;21.60;99.90;;;;;;4973116;28;19929;-79
2023/06/05 13:03:34;;;;;;;;;;;21.50;99.90;;;;;;4973194;28;19965;-78
2023/06/05 13:05:59;;;;;;;;;;;21.40;99.90;;;;;;4971711;28;19918;-79
2023/06/05 13:08:25;;;;;;;;;;;21.30;99.90;;;;;;4972403;28;19910;-78
2023/06/05 13:10:51;;;;;;;;;;;21.30;99.90;;;;;;4976247;28;20436;-79
2023/06/05 13:13:16;;;;;;;;;;;21.30;99.90;;;;;;4972459;28;20383;-79
2023/06/05 13:15:42;;;;;;;;;;;21.40;99.90;;;;;;4972469;28;19922;-78
2023/06/05 13:18:09;;;;;;;;;;;21.40;99.90;;;;;;4974367;28;19921;-79
2023/06/05 13:20:35;;;;;;;;;;;21.40;99.90;;;;;;4972939;28;19918;-79
2023/06/05 13:23:00;;;;;;;;;;;21.40;99.90;;;;;;4976809;28;19928;-78
2023/06/05 13:25:26;;;;;;;;;;;21.70;99.90;;;;;;4969461;28;20364;-79
2023/06/05 13:27:51;;;;;;;;;;;22.10;99.90;;;;;;4975508;28;20007;-79
2023/06/05 13:30:17;;;;;;;;;;;22.00;99.90;;;;;;4976556;28;19910;-79
2023/06/05 13:32:44;;;;;;;;;;;21.90;99.90;;;;;;4972219;28;20010;-80
2023/06/05 13:35:10;;;;;;;;;;;21.90;99.90;;;;;;4970038;28;19933;-80
2023/06/05 13:37:36;;;;;;;;;;;21.80;99.90;;;;;;4972746;28;20336;-80
2023/06/05 13:40:05;;;;;;;;;;;21.60;99.90;;;;;;4974467;28;19918;-80
2023/06/05 13:42:32;;;;;;;;;;;21.50;99.90;;;;;;4969050;28;19986;-74
2023/06/05 13:44:57;;;;;;;;;;;21.30;99.90;;;;;;4967842;28;19918;-78
2023/06/05 13:47:23;;;;;;;;;;;21.00;99.90;;;;;;4972109;28;19911;-79
2023/06/05 13:49:48;;;;;;;;;;;20.60;99.90;;;;;;4983430;28;19914;-80
2023/06/05 13:52:14;;;;;;;;;;;19.90;99.90;;;;;;4973902;28;19925;-80
2023/06/05 13:54:41;;;;;;;;;;;19.30;99.90;;;;;;4996842;28;19925;-82
2023/06/05 13:57:07;;;;;;;;;;;19.00;99.90;;;;;;4983243;28;19910;-81
2023/06/05 13:59:32;;;;;;;;;;;18.80;99.90;;;;;;4974408;28;19918;-81
2023/06/05 14:01:58;;;;;;;;;;;18.80;99.90;;;;;;4985437;28;19930;-83
2023/06/05 14:04:23;;;;;;;;;;;18.80;99.90;;;;;;4980882;28;19994;-81
2023/06/05 14:06:49;;;;;;;;;;;18.80;99.90;;;;;;4979783;28;19917;-81
2023/06/05 14:09:14;;;;;;;;;;;18.80;99.90;;;;;;4978074;28;19918;-80
2023/06/05 14:11:44;;;;;;;;;;;18.90;99.90;;;;;;4979236;28;19997;-80
2023/06/05 14:14:10;;;;;;;;;;;18.90;99.90;;;;;;4976171;28;20414;-81